Thunder radar more information blitzortung!


Radar de pluja more information rain snow radar


Visita la nostra xarxa de llocs de meteo:

Template documentation
and downloads

And another site



Wind From: 11-12-2017 11:00 Until: 14:59 warning for: Wind Level: Yellow info button

Pagina Historial Weather Underground text

Diari Resum January 16, 2016 Unitats:  Mètric    Imperial   Tant
« Previous Dia
SegĂźent Dia »
Diari Setmana Mensual Anual Personalitzada
  Maxima: Minima: Media:
Temperatura: 12.0 °C 3.5 °C 8.7 °C
Punt de rosada: -9.4 °C -15.3 °C -13.2 °C
Humitat: 31 % 15 % 20 %
Wind Speed: 14.8 km/h 0.0 km/h 6.6 km/h
RĂ fegues de vent: 14.8 km/h - -
Vent:- - SW
Pression baro: 1028.0 hPa 1024.9 hPa -
Precipitacions: 0.0 mm    
Historical Graphs
 
 
Dades de taula per January 16, 2016
Temps Temperatura Punt de rosada Pression baro Vent Wind Speed RĂ fegues de vent Humitat Rainfall Rate (Hourly)
11:39 9.1 °C -9.4 °C 1026.0 hPa SSW 12.2 km/h 12.2 km/h 26 % 0.0 mm
11:44 9.2 °C -9.8 °C 1026.0 hPa NNW 9.3 km/h 9.3 km/h 25 % 0.0 mm
11:49 9.4 °C -10.2 °C 1026.0 hPa North 9.3 km/h 9.3 km/h 24 % 0.0 mm
11:54 9.6 °C -10.0 °C 1026.0 hPa ENE 6.4 km/h 6.4 km/h 24 % 0.0 mm
11:59 9.8 °C -9.8 °C 1026.0 hPa NW 5.6 km/h 5.6 km/h 24 % 0.0 mm
12:04 9.8 °C -10.4 °C 1026.0 hPa SW 8.7 km/h 8.7 km/h 23 % 0.0 mm
12:09 10.0 °C -10.2 °C 1026.0 hPa WNW 9.3 km/h 9.3 km/h 23 % 0.0 mm
12:14 10.1 °C -10.2 °C 1026.0 hPa SSE 3.9 km/h 3.9 km/h 23 % 0.0 mm
12:24 10.4 °C -11.1 °C 1024.9 hPa SW 7.6 km/h 7.6 km/h 21 % 0.0 mm
12:29 10.5 °C -11.6 °C 1024.9 hPa NNE 11.1 km/h 11.1 km/h 20 % 0.0 mm
12:34 10.8 °C -10.7 °C 1024.9 hPa SSW 7.4 km/h 7.4 km/h 21 % 0.0 mm
12:39 10.9 °C -10.6 °C 1026.0 hPa WSW 9.3 km/h 9.3 km/h 21 % 0.0 mm
12:44 11.1 °C -11.1 °C 1026.0 hPa NNW 9.3 km/h 9.3 km/h 20 % 0.0 mm
12:49 11.1 °C -11.7 °C 1026.0 hPa West 9.7 km/h 9.7 km/h 19 % 0.0 mm
12:54 11.2 °C -12.3 °C 1026.0 hPa SW 9.3 km/h 9.3 km/h 18 % 0.0 mm
12:59 11.3 °C -11.6 °C 1026.0 hPa SW 7.4 km/h 7.4 km/h 19 % 0.0 mm
13:04 11.3 °C -11.6 °C 1026.0 hPa WSW 5.6 km/h 5.6 km/h 19 % 0.0 mm
13:09 11.3 °C -11.6 °C 1026.0 hPa NNE 5.6 km/h 5.6 km/h 19 % 0.0 mm
13:14 11.3 °C -10.9 °C 1026.0 hPa ESE 3.7 km/h 3.7 km/h 20 % 0.0 mm
13:19 11.4 °C -10.8 °C 1026.0 hPa NE 7.4 km/h 7.4 km/h 20 % 0.0 mm
13:24 11.4 °C -11.4 °C 1026.0 hPa West 9.3 km/h 9.3 km/h 19 % 0.0 mm
13:29 11.4 °C -11.4 °C 1026.0 hPa SE 9.3 km/h 9.3 km/h 19 % 0.0 mm
13:34 11.5 °C -11.4 °C 1026.0 hPa NW 7.6 km/h 7.6 km/h 19 % 0.0 mm
13:39 11.4 °C -11.4 °C 1026.0 hPa ENE 7.4 km/h 7.4 km/h 19 % 0.0 mm
13:44 11.7 °C -11.2 °C 1026.0 hPa NNW 5.6 km/h 5.6 km/h 19 % 0.0 mm
13:49 11.8 °C -12.5 °C 1026.0 hPa West 9.3 km/h 9.3 km/h 17 % 0.0 mm
13:54 11.8 °C -11.8 °C 1027.0 hPa WNW 7.4 km/h 7.4 km/h 18 % 0.0 mm
13:59 11.7 °C -11.9 °C 1027.0 hPa ESE 11.1 km/h 11.1 km/h 18 % 0.0 mm
14:04 11.7 °C -11.9 °C 1027.0 hPa SW 5.8 km/h 5.8 km/h 18 % 0.0 mm
14:09 11.7 °C -12.6 °C 1026.0 hPa ESE 11.1 km/h 11.1 km/h 17 % 0.0 mm
14:14 11.7 °C -12.6 °C 1026.0 hPa ESE 13.0 km/h 13.0 km/h 17 % 0.0 mm
14:19 11.5 °C -13.5 °C 1026.0 hPa WSW 14.8 km/h 14.8 km/h 16 % 0.0 mm
14:24 11.3 °C -13.7 °C 1026.0 hPa NNW 9.3 km/h 9.3 km/h 16 % 0.0 mm
14:29 11.4 °C -13.6 °C 1026.0 hPa SW 14.8 km/h 14.8 km/h 16 % 0.0 mm
14:34 11.3 °C -13.7 °C 1026.0 hPa WNW 9.3 km/h 9.3 km/h 16 % 0.0 mm
14:39 11.3 °C -12.9 °C 1026.0 hPa WSW 7.4 km/h 7.6 km/h 17 % 0.0 mm
14:44 11.4 °C -13.6 °C 1026.0 hPa WSW 9.7 km/h 9.7 km/h 16 % 0.0 mm
14:49 11.3 °C -13.7 °C 1026.0 hPa NNE 5.6 km/h 5.6 km/h 16 % 0.0 mm
14:54 11.3 °C -13.7 °C 1026.0 hPa South 9.3 km/h 9.3 km/h 16 % 0.0 mm
14:59 11.2 °C -13.0 °C 1026.0 hPa WSW 11.1 km/h 11.1 km/h 17 % 0.0 mm
15:04 11.3 °C -13.7 °C 1026.0 hPa NNE 9.3 km/h 9.3 km/h 16 % 0.0 mm
15:09 11.4 °C -12.8 °C 1026.0 hPa NNE 9.3 km/h 9.3 km/h 17 % 0.0 mm
15:14 11.6 °C -13.4 °C 1026.0 hPa ESE 4.2 km/h 4.2 km/h 16 % 0.0 mm
15:19 11.6 °C -13.4 °C 1026.0 hPa WSW 13.0 km/h 13.0 km/h 16 % 0.0 mm
15:24 11.6 °C -13.4 °C 1026.0 hPa NW 9.3 km/h 9.3 km/h 16 % 0.0 mm
15:29 11.6 °C -13.4 °C 1026.0 hPa NW 9.3 km/h 9.3 km/h 16 % 0.0 mm
15:34 11.7 °C -13.3 °C 1026.0 hPa WSW 13.0 km/h 13.0 km/h 16 % 0.0 mm
15:39 11.7 °C -13.3 °C 1026.0 hPa SW 9.3 km/h 9.3 km/h 16 % 0.0 mm
15:44 11.8 °C -13.3 °C 1026.0 hPa WSW 7.4 km/h 7.4 km/h 16 % 0.0 mm
15:49 11.7 °C -14.2 °C 1026.0 hPa SW 13.0 km/h 13.0 km/h 15 % 0.0 mm
15:54 11.7 °C -14.2 °C 1026.0 hPa WSW 7.2 km/h 7.2 km/h 15 % 0.0 mm
15:59 11.5 °C -13.5 °C 1026.0 hPa NNW 13.0 km/h 13.0 km/h 16 % 0.0 mm
16:04 11.7 °C -13.3 °C 1026.0 hPa WNW 7.4 km/h 7.4 km/h 16 % 0.0 mm
16:09 11.7 °C -13.3 °C 1026.0 hPa SW 5.3 km/h 5.3 km/h 16 % 0.0 mm
16:14 11.7 °C -13.3 °C 1026.0 hPa WSW 7.4 km/h 7.4 km/h 16 % 0.0 mm
16:19 11.8 °C -13.3 °C 1026.0 hPa West 7.4 km/h 7.4 km/h 16 % 0.0 mm
16:24 12.0 °C -12.3 °C 1026.0 hPa SW 3.7 km/h 3.7 km/h 17 % 0.0 mm
16:29 11.7 °C -13.3 °C 1026.0 hPa WSW 13.0 km/h 13.0 km/h 16 % 0.0 mm
16:34 11.7 °C -13.3 °C 1026.0 hPa WSW 6.1 km/h 6.1 km/h 16 % 0.0 mm
16:39 11.7 °C -12.6 °C 1026.0 hPa SW 5.8 km/h 5.8 km/h 17 % 0.0 mm
16:44 11.6 °C -12.7 °C 1026.0 hPa SW 7.4 km/h 7.4 km/h 17 % 0.0 mm
16:49 11.5 °C -12.8 °C 1026.0 hPa WNW 5.6 km/h 5.6 km/h 17 % 0.0 mm
16:54 11.5 °C -12.8 °C 1026.0 hPa NW 5.6 km/h 5.6 km/h 17 % 0.0 mm
16:59 11.2 °C -13.0 °C 1026.0 hPa WSW 5.6 km/h 5.6 km/h 17 % 0.0 mm
17:04 11.1 °C -13.1 °C 1026.0 hPa SSW 9.3 km/h 9.3 km/h 17 % 0.0 mm
17:09 10.8 °C -13.3 °C 1026.0 hPa West 7.4 km/h 7.4 km/h 17 % 0.0 mm
17:14 10.7 °C -13.4 °C 1026.0 hPa SSW 9.3 km/h 9.3 km/h 17 % 0.0 mm
17:19 10.4 °C -13.7 °C 1026.0 hPa WSW 7.4 km/h 7.4 km/h 17 % 0.0 mm
17:24 10.2 °C -13.8 °C 1026.0 hPa SSW 9.7 km/h 9.7 km/h 17 % 0.0 mm
17:29 10.0 °C -13.3 °C 1026.0 hPa SE 9.3 km/h 9.3 km/h 18 % 0.0 mm
17:34 9.7 °C -13.6 °C 1026.0 hPa WSW 9.3 km/h 9.3 km/h 18 % 0.0 mm
17:39 9.3 °C -13.9 °C 1026.0 hPa WSW 5.3 km/h 5.3 km/h 18 % 0.0 mm
17:44 9.1 °C -14.1 °C 1026.0 hPa WSW 11.1 km/h 11.1 km/h 18 % 0.0 mm
17:49 9.0 °C -14.1 °C 1026.0 hPa West 7.9 km/h 7.9 km/h 18 % 0.0 mm
17:54 8.8 °C -14.3 °C 1027.0 hPa SW 9.3 km/h 9.3 km/h 18 % 0.0 mm
17:59 8.7 °C -14.3 °C 1027.0 hPa WNW 9.0 km/h 9.0 km/h 18 % 0.0 mm
18:04 8.5 °C -14.5 °C 1027.0 hPa SW 11.1 km/h 11.1 km/h 18 % 0.0 mm
18:09 8.4 °C -13.9 °C 1027.0 hPa WSW 5.6 km/h 5.6 km/h 19 % 0.0 mm
18:14 8.2 °C -14.1 °C 1027.0 hPa SW 3.7 km/h 3.7 km/h 19 % 0.0 mm
18:19 8.2 °C -14.1 °C 1027.0 hPa West 9.0 km/h 9.0 km/h 19 % 0.0 mm
18:24 8.1 °C -14.2 °C 1027.0 hPa SW 5.8 km/h 6.1 km/h 19 % 0.0 mm
18:29 8.0 °C -14.9 °C 1027.0 hPa WSW 5.6 km/h 5.6 km/h 18 % 0.0 mm
18:34 7.9 °C -14.4 °C 1027.0 hPa West 3.9 km/h 3.9 km/h 19 % 0.0 mm
18:44 7.7 °C -14.5 °C 1026.0 hPa West 6.9 km/h 6.9 km/h 19 % 0.0 mm
18:49 7.6 °C -14.6 °C 1026.0 hPa WSW 3.9 km/h 3.9 km/h 19 % 0.0 mm
18:54 7.5 °C -14.7 °C 1027.0 hPa West 5.6 km/h 5.6 km/h 19 % 0.0 mm
18:59 7.4 °C -14.8 °C 1027.0 hPa WSW 3.9 km/h 3.9 km/h 19 % 0.0 mm
19:04 7.1 °C -15.0 °C 1027.0 hPa SW 3.9 km/h 3.9 km/h 19 % 0.0 mm
19:09 6.7 °C -15.3 °C 1027.0 hPa WSW 5.6 km/h 5.6 km/h 19 % 0.0 mm
19:14 6.7 °C -14.7 °C 1027.0 hPa WSW 5.0 km/h 5.0 km/h 20 % 0.0 mm
19:19 6.6 °C -14.8 °C 1027.0 hPa WSW 3.9 km/h 3.9 km/h 20 % 0.0 mm
19:24 6.7 °C -14.7 °C 1027.0 hPa WSW 3.7 km/h 3.7 km/h 20 % 0.0 mm
19:29 6.7 °C -14.7 °C 1027.0 hPa WSW 3.7 km/h 3.7 km/h 20 % 0.0 mm
19:34 6.7 °C -14.7 °C 1027.0 hPa WSW 3.7 km/h 3.7 km/h 20 % 0.0 mm
19:39 6.7 °C -14.7 °C 1027.0 hPa WSW 3.7 km/h 3.7 km/h 20 % 0.0 mm
19:44 6.6 °C -14.8 °C 1027.0 hPa West 1.9 km/h   20 % 0.0 mm
19:49 6.5 °C -14.9 °C 1027.0 hPa West 2.6 km/h   20 % 0.0 mm
19:54 6.4 °C -15.0 °C 1027.0 hPa Calm     20 % 0.0 mm
19:59 6.3 °C -15.1 °C 1027.0 hPa WSW 3.2 km/h   20 % 0.0 mm
20:04 6.4 °C -15.0 °C 1027.0 hPa West 3.7 km/h 3.7 km/h 20 % 0.0 mm
20:09 6.5 °C -14.9 °C 1027.0 hPa WSW 3.7 km/h 3.7 km/h 20 % 0.0 mm
20:14 6.4 °C -14.4 °C 1027.0 hPa West 3.9 km/h   21 % 0.0 mm
20:19 6.5 °C -14.3 °C 1027.0 hPa SW 3.9 km/h 3.9 km/h 21 % 0.0 mm
20:24 6.5 °C -14.3 °C 1027.0 hPa WSW 5.6 km/h 5.6 km/h 21 % 0.0 mm
20:29 6.4 °C -14.4 °C 1027.0 hPa North 1.9 km/h 1.9 km/h 21 % 0.0 mm
20:34 6.3 °C -13.9 °C 1027.0 hPa WSW 3.7 km/h 3.7 km/h 22 % 0.0 mm
20:39 6.2 °C -14.0 °C 1027.0 hPa WNW 3.7 km/h 3.7 km/h 22 % 0.0 mm
20:44 6.1 °C -14.1 °C 1027.0 hPa North 3.7 km/h 3.7 km/h 22 % 0.0 mm
20:54 5.8 °C -14.3 °C 1028.0 hPa Calm     22 % 0.0 mm
20:59 5.6 °C -14.5 °C 1028.0 hPa SW 1.9 km/h   22 % 0.0 mm
21:04 5.5 °C -14.6 °C 1028.0 hPa WSW 2.6 km/h 2.6 km/h 22 % 0.0 mm
21:09 5.4 °C -14.1 °C 1027.0 hPa Calm     23 % 0.0 mm
21:14 5.3 °C -14.2 °C 1027.0 hPa SW 3.9 km/h 3.9 km/h 23 % 0.0 mm
21:24 5.3 °C -14.2 °C 1028.0 hPa SW 4.7 km/h 4.7 km/h 23 % 0.0 mm
21:29 5.3 °C -14.2 °C 1028.0 hPa West 5.3 km/h 5.3 km/h 23 % 0.0 mm
21:34 5.2 °C -13.8 °C 1028.0 hPa WSW 5.6 km/h 5.6 km/h 24 % 0.0 mm
21:39 5.2 °C -13.8 °C 1028.0 hPa WSW 3.7 km/h 3.7 km/h 24 % 0.0 mm
21:44 4.9 °C -14.1 °C 1028.0 hPa SSW 3.9 km/h 3.9 km/h 24 % 0.0 mm
21:49 4.5 °C -14.4 °C 1028.0 hPa WSW 5.6 km/h 5.6 km/h 24 % 0.0 mm
21:54 4.5 °C -13.9 °C 1028.0 hPa SW 5.0 km/h 5.0 km/h 25 % 0.0 mm
21:59 4.4 °C -13.9 °C 1028.0 hPa WSW 3.7 km/h 3.7 km/h 25 % 0.0 mm
22:04 4.4 °C -13.9 °C 1028.0 hPa WSW 1.9 km/h   25 % 0.0 mm
22:09 4.4 °C -13.5 °C 1028.0 hPa SW 3.7 km/h 3.7 km/h 26 % 0.0 mm
22:14 4.4 °C -13.5 °C 1028.0 hPa WSW 2.6 km/h 2.6 km/h 26 % 0.0 mm
22:19 4.5 °C -12.9 °C 1028.0 hPa SW 3.7 km/h 3.7 km/h 27 % 0.0 mm
22:24 4.5 °C -12.9 °C 1028.0 hPa SW 5.6 km/h 5.6 km/h 27 % 0.0 mm
22:29 4.3 °C -13.1 °C 1028.0 hPa SW 1.9 km/h 1.9 km/h 27 % 0.0 mm
22:34 4.4 °C -12.6 °C 1028.0 hPa WSW 6.1 km/h 6.1 km/h 28 % 0.0 mm
22:39 4.3 °C -12.2 °C 1028.0 hPa WSW 5.6 km/h 5.6 km/h 29 % 0.0 mm
22:44 4.3 °C -12.2 °C 1028.0 hPa WSW 4.2 km/h 4.2 km/h 29 % 0.0 mm
22:54 4.3 °C -11.8 °C 1028.0 hPa SW 5.0 km/h 5.0 km/h 30 % 0.0 mm
22:59 3.9 °C -12.1 °C 1028.0 hPa SSW 5.6 km/h 5.6 km/h 30 % 0.0 mm
23:04 3.6 °C -12.4 °C 1028.0 hPa WSW 7.4 km/h 7.4 km/h 30 % 0.0 mm
23:09 3.5 °C -12.5 °C 1028.0 hPa NNW 2.3 km/h 2.6 km/h 30 % 0.0 mm
23:14 3.6 °C -12.0 °C 1028.0 hPa WSW 3.7 km/h   31 % 0.0 mm
23:19 3.6 °C -12.0 °C 1028.0 hPa WSW 5.6 km/h 5.6 km/h 31 % 0.0 mm
23:24 3.6 °C -12.0 °C 1028.0 hPa SW 3.7 km/h 3.7 km/h 31 % 0.0 mm
Meteo Sesrovires
Elogis d' Weather Underground - 3.25 mb

Guio original per  Jim McMurry - jmcmurry@mwt.net Adaptat per a la plantilla per  Wim van der Kuil - Leuven-Template.eu

Trobareu la nostra informacio del temps tambe a:

Weather Underground

AWEKAS